createdAt,value
2019-05-29T00:01:19.854Z,7.73
2019-05-29T00:03:45.061Z,7.97
2019-05-29T00:06:14.336Z,7.53
2019-05-29T00:08:42.841Z,7.00
2019-05-29T00:11:12.240Z,7.30
2019-05-29T00:13:40.618Z,7.20
2019-05-29T00:16:09.006Z,7.47
2019-05-29T00:18:38.471Z,7.23
2019-05-29T00:21:06.859Z,7.37
2019-05-29T00:23:35.249Z,7.47
2019-05-29T00:26:03.703Z,7.33
2019-05-29T00:28:32.090Z,7.37
2019-05-29T00:31:00.476Z,7.60
2019-05-29T00:33:28.868Z,6.77
2019-05-29T00:35:57.250Z,6.87
2019-05-29T00:38:25.672Z,6.67
2019-05-29T00:40:54.059Z,6.63
2019-05-29T00:43:22.461Z,7.57
2019-05-29T00:45:50.924Z,6.87
2019-05-29T00:48:19.314Z,7.43
2019-05-29T00:50:47.803Z,6.50
2019-05-29T00:53:16.443Z,6.90
2019-05-29T00:55:44.833Z,7.27
2019-05-29T00:58:13.228Z,6.90
2019-05-29T01:00:41.642Z,6.63
2019-05-29T01:03:10.025Z,6.73
2019-05-29T01:05:38.423Z,6.80
2019-05-29T01:08:06.800Z,6.67
2019-05-29T01:10:35.433Z,7.00
2019-05-29T01:13:03.897Z,7.47
2019-05-29T01:15:32.287Z,7.10
2019-05-29T01:18:00.676Z,6.73
2019-05-29T01:20:29.061Z,7.87
2019-05-29T01:22:57.522Z,7.00
2019-05-29T01:25:25.972Z,7.57
2019-05-29T01:27:54.364Z,7.27
2019-05-29T01:30:23.431Z,6.97
2019-05-29T01:32:51.880Z,7.60
2019-05-29T01:35:20.352Z,7.60
2019-05-29T01:37:48.736Z,7.90
2019-05-29T01:40:23.123Z,7.50
2019-05-29T01:42:49.882Z,7.17
2019-05-29T01:45:17.568Z,8.00
2019-05-29T01:47:45.957Z,7.80
2019-05-29T01:50:15.556Z,7.70
2019-05-29T01:52:44.016Z,7.90
2019-05-29T01:55:12.506Z,7.60
2019-05-29T01:57:40.915Z,7.50
2019-05-29T02:00:10.101Z,7.83
2019-05-29T02:02:38.590Z,8.17
2019-05-29T02:05:07.315Z,7.83
2019-05-29T02:07:35.822Z,7.67
2019-05-29T02:10:06.728Z,7.03
2019-05-29T02:12:35.156Z,7.30
2019-05-29T02:15:04.994Z,6.90
2019-05-29T02:17:33.397Z,6.97
2019-05-29T02:20:01.813Z,7.00
2019-05-29T02:22:30.207Z,6.80
2019-05-29T02:24:58.620Z,7.23
2019-05-29T02:27:27.738Z,7.10
2019-05-29T02:29:56.331Z,6.73
2019-05-29T02:32:25.557Z,7.17
2019-05-29T02:34:54.070Z,7.20
2019-05-29T02:37:22.454Z,7.07
2019-05-29T02:39:50.871Z,7.07
2019-05-29T02:42:20.865Z,7.50
2019-05-29T02:44:49.504Z,7.60
2019-05-29T02:47:19.279Z,7.67
2019-05-29T02:49:47.930Z,6.90
2019-05-29T02:52:16.319Z,6.20
2019-05-29T02:54:44.711Z,7.13
2019-05-29T02:57:13.183Z,7.17
2019-05-29T02:59:41.575Z,7.50
2019-05-29T03:02:09.967Z,7.47
2019-05-29T03:04:38.374Z,7.50
2019-05-29T03:07:07.016Z,7.50
2019-05-29T03:09:35.394Z,7.23
2019-05-29T03:12:03.848Z,7.57
2019-05-29T03:14:34.333Z,7.47
2019-05-29T03:17:02.353Z,8.03
2019-05-29T03:19:32.370Z,7.30
2019-05-29T03:22:00.985Z,7.60
2019-05-29T03:24:30.818Z,7.53
2019-05-29T03:26:59.677Z,7.00
2019-05-29T03:29:29.654Z,6.63
2019-05-29T03:31:58.398Z,7.20
2019-05-29T03:34:31.064Z,6.67
2019-05-29T03:36:57.040Z,7.00
2019-05-29T03:39:26.397Z,6.77
2019-05-29T03:41:54.843Z,6.90
2019-05-29T03:44:23.249Z,6.80
2019-05-29T03:46:51.647Z,6.83
2019-05-29T03:49:20.032Z,6.77
2019-05-29T03:51:48.428Z,6.83
2019-05-29T03:54:16.896Z,7.00
2019-05-29T03:56:45.344Z,7.40
2019-05-29T03:59:13.760Z,7.27
2019-05-29T04:01:42.139Z,6.80
2019-05-29T04:04:10.526Z,6.50
2019-05-29T04:06:38.908Z,6.77
2019-05-29T04:09:07.369Z,6.70
2019-05-29T04:11:37.921Z,6.97
2019-05-29T04:14:06.721Z,7.00
2019-05-29T04:16:54.008Z,6.80
2019-05-29T04:19:06.538Z,6.30
2019-05-29T04:21:38.436Z,6.10
2019-05-29T04:24:06.972Z,6.50
2019-05-29T04:26:38.443Z,6.60
2019-05-29T04:29:06.940Z,6.90
2019-05-29T04:31:36.526Z,6.57
2019-05-29T04:34:05.448Z,6.60
2019-05-29T04:36:34.867Z,6.47
2019-05-29T04:39:04.907Z,6.60
2019-05-29T04:41:34.657Z,7.30
2019-05-29T04:44:03.149Z,7.13
2019-05-29T04:46:31.770Z,8.48
2019-05-29T04:49:00.195Z,7.93
2019-05-29T04:51:29.079Z,8.03
2019-05-29T04:53:57.609Z,8.40
2019-05-29T04:56:25.998Z,8.43
2019-05-29T04:58:54.413Z,8.33
2019-05-29T05:01:22.821Z,8.50
2019-05-29T05:03:51.272Z,8.70
2019-05-29T05:06:19.758Z,9.18
2019-05-29T05:08:48.279Z,8.63
2019-05-29T05:11:17.015Z,9.90
2019-05-29T05:13:46.089Z,8.40
2019-05-29T05:16:14.550Z,9.47
2019-05-29T05:18:42.956Z,10.03
2019-05-29T05:21:11.418Z,9.53
2019-05-29T05:23:40.509Z,9.97
2019-05-29T05:26:09.212Z,10.60
2019-05-29T05:28:38.614Z,9.97
2019-05-29T05:31:06.988Z,9.47
2019-05-29T05:33:36.632Z,9.87
2019-05-29T05:36:05.255Z,10.23
2019-05-29T05:38:34.661Z,10.27
2019-05-29T05:41:03.228Z,10.77
2019-05-29T05:43:32.820Z,10.37
2019-05-29T05:46:01.441Z,10.90
2019-05-29T05:48:30.892Z,10.73
2019-05-29T05:50:59.370Z,11.07
2019-05-29T05:53:27.909Z,11.07
2019-05-29T05:55:56.326Z,11.10
2019-05-29T05:58:24.730Z,10.60
2019-05-29T06:00:53.121Z,11.10
2019-05-29T06:03:21.581Z,10.93
2019-05-29T06:05:50.016Z,10.80
2019-05-29T06:08:18.512Z,11.50
2019-05-29T06:10:46.927Z,11.97
2019-05-29T06:13:15.330Z,13.13
2019-05-29T06:15:43.840Z,12.60
2019-05-29T06:18:21.109Z,12.67
2019-05-29T06:20:43.229Z,12.23
2019-05-29T06:23:11.670Z,12.57
2019-05-29T06:25:40.773Z,12.40
2019-05-29T06:28:10.315Z,13.87
2019-05-29T06:30:40.686Z,12.83
2019-05-29T06:33:08.899Z,12.07
2019-05-29T06:35:37.625Z,11.93
2019-05-29T06:38:06.101Z,11.73
2019-05-29T06:40:38.321Z,11.87
2019-05-29T06:43:11.256Z,11.50
2019-05-29T06:45:38.372Z,12.17
2019-05-29T06:48:08.697Z,11.87
2019-05-29T06:50:37.481Z,11.03
2019-05-29T06:53:05.949Z,11.60
2019-05-29T06:55:35.667Z,11.20
2019-05-29T06:58:04.349Z,11.47
2019-05-29T07:00:35.518Z,11.53
2019-05-29T07:03:02.958Z,11.27
2019-05-29T07:05:31.386Z,12.05
2019-05-29T07:08:13.313Z,10.83
2019-05-29T07:10:29.976Z,10.03
2019-05-29T07:12:58.374Z,10.63
2019-05-29T07:15:26.804Z,10.30
2019-05-29T07:17:55.189Z,9.73
2019-05-29T07:20:23.645Z,10.27
2019-05-29T07:22:52.061Z,10.90
2019-05-29T07:25:20.430Z,10.80
2019-05-29T07:27:48.825Z,10.47
2019-05-29T07:30:18.758Z,10.93
2019-05-29T07:32:56.654Z,10.57
2019-05-29T07:35:17.340Z,11.20
2019-05-29T07:37:46.029Z,11.63
2019-05-29T07:40:14.641Z,10.83
2019-05-29T07:42:49.751Z,11.53
2019-05-29T07:45:13.869Z,10.90
2019-05-29T07:47:42.745Z,10.37
2019-05-29T07:50:11.680Z,11.27
2019-05-29T07:52:40.855Z,11.00
2019-05-29T07:55:09.949Z,11.23
2019-05-29T07:57:38.860Z,11.33
2019-05-29T08:00:08.459Z,12.17
2019-05-29T08:02:36.855Z,11.27
2019-05-29T08:05:06.708Z,11.57
2019-05-29T08:07:35.101Z,11.63
2019-05-29T08:10:05.473Z,11.10
2019-05-29T08:12:33.873Z,11.00
2019-05-29T08:15:02.344Z,11.85
2019-05-29T08:17:30.729Z,10.80
2019-05-29T08:20:06.568Z,10.10
2019-05-29T08:22:34.120Z,10.30
2019-05-29T08:24:59.453Z,11.57
2019-05-29T08:27:27.845Z,9.90
2019-05-29T08:29:56.316Z,9.70
2019-05-29T08:32:24.757Z,9.60
2019-05-29T08:34:53.124Z,9.97
2019-05-29T08:37:21.516Z,9.43
2019-05-29T08:39:51.580Z,9.93
2019-05-29T08:42:23.304Z,9.13
2019-05-29T08:44:50.258Z,8.47
2019-05-29T08:47:18.926Z,8.20
2019-05-29T08:49:50.874Z,8.03
2019-05-29T08:52:17.504Z,7.23
2019-05-29T08:54:46.067Z,7.93
2019-05-29T08:57:14.412Z,6.80
2019-05-29T08:59:44.328Z,6.80
2019-05-29T09:02:12.806Z,6.10
2019-05-29T09:04:42.916Z,5.80
2019-05-29T09:07:11.349Z,5.93
2019-05-29T09:09:39.737Z,5.70
2019-05-29T09:12:08.118Z,5.87
2019-05-29T09:14:36.523Z,4.83
2019-05-29T09:17:04.965Z,4.10
2019-05-29T09:19:33.324Z,3.50
2019-05-29T09:22:01.711Z,3.30
2019-05-29T09:24:30.105Z,3.10
2019-05-29T09:26:58.497Z,2.90
2019-05-29T09:29:26.876Z,2.90
2019-05-29T09:31:55.265Z,2.80
2019-05-29T09:34:24.373Z,2.30
2019-05-29T09:36:55.759Z,1.93
2019-05-29T09:39:23.040Z,2.17
2019-05-29T09:41:51.437Z,2.30
2019-05-29T09:44:36.089Z,2.30
2019-05-29T09:46:49.932Z,2.00
2019-05-29T09:49:18.558Z,2.33
2019-05-29T09:51:48.484Z,2.43
2019-05-29T09:54:16.919Z,2.33
2019-05-29T09:56:45.335Z,2.50
2019-05-29T09:59:13.723Z,2.80
2019-05-29T10:01:42.102Z,2.63
2019-05-29T10:04:10.494Z,2.20
2019-05-29T10:06:38.867Z,2.70
2019-05-29T10:09:09.197Z,2.57
2019-05-29T10:11:37.911Z,2.70
2019-05-29T10:14:06.558Z,2.50
2019-05-29T10:16:34.954Z,2.50
2019-05-29T10:19:03.838Z,2.50
2019-05-29T10:21:41.533Z,2.70
2019-05-29T10:24:04.134Z,2.60
2019-05-29T10:26:32.760Z,2.63
2019-05-29T10:29:08.326Z,2.93
2019-05-29T10:31:31.240Z,2.80
2019-05-29T10:33:59.704Z,2.80
2019-05-29T10:36:28.290Z,3.33
2019-05-29T10:38:56.622Z,2.90
2019-05-29T10:41:25.008Z,3.30
2019-05-29T10:43:53.462Z,3.50
2019-05-29T10:46:21.783Z,3.57
2019-05-29T10:48:52.838Z,3.50
2019-05-29T10:51:20.359Z,3.60
2019-05-29T10:53:50.355Z,3.70
2019-05-29T10:56:21.189Z,3.73
2019-05-29T10:58:55.725Z,3.80
2019-05-29T11:01:19.087Z,3.63
2019-05-29T11:03:47.458Z,3.60
2019-05-29T11:06:15.868Z,3.30
2019-05-29T11:08:44.250Z,2.90
2019-05-29T11:11:12.639Z,3.13
2019-05-29T11:13:41.044Z,2.47
2019-05-29T11:16:09.428Z,2.30
2019-05-29T11:18:37.811Z,2.20
2019-05-29T11:21:06.269Z,2.70
2019-05-29T11:23:34.658Z,2.30
2019-05-29T11:26:03.042Z,2.70
2019-05-29T11:28:31.430Z,2.70
2019-05-29T11:31:06.128Z,2.83
2019-05-29T11:33:29.934Z,2.83
2019-05-29T11:36:10.050Z,2.63
2019-05-29T11:38:28.523Z,2.43
2019-05-29T11:41:19.885Z,2.50
2019-05-29T11:43:27.199Z,2.30
2019-05-29T11:45:55.582Z,2.60
2019-05-29T11:48:23.972Z,2.70
2019-05-29T11:50:52.349Z,2.10
2019-05-29T11:53:20.736Z,2.30
2019-05-29T11:55:49.115Z,2.20
2019-05-29T11:58:30.619Z,2.23
2019-05-29T12:00:47.688Z,2.23
2019-05-29T12:03:16.078Z,2.20
2019-05-29T12:05:44.488Z,2.37
2019-05-29T12:08:12.885Z,2.20
2019-05-29T12:10:41.294Z,2.10
2019-05-29T12:13:09.742Z,2.10
2019-05-29T12:15:38.127Z,2.30
2019-05-29T12:18:23.045Z,2.33
2019-05-29T12:20:37.002Z,2.47
2019-05-29T12:23:23.779Z,2.30
2019-05-29T12:25:35.547Z,2.10
2019-05-29T12:28:04.308Z,2.30
2019-05-29T12:30:34.337Z,2.30
2019-05-29T12:33:03.260Z,2.60
2019-05-29T12:35:31.673Z,2.20
2019-05-29T12:38:01.394Z,2.40
2019-05-29T12:40:29.834Z,2.43
2019-05-29T12:42:59.998Z,2.40
2019-05-29T12:45:28.327Z,2.40
2019-05-29T12:47:58.195Z,2.60
2019-05-29T12:50:27.118Z,2.40
2019-05-29T12:52:55.775Z,2.80
2019-05-29T12:55:24.266Z,3.00
2019-05-29T12:57:53.840Z,2.83
2019-05-29T13:00:22.339Z,2.90
2019-05-29T13:02:50.730Z,3.10
2019-05-29T13:05:20.879Z,3.10
2019-05-29T13:07:49.544Z,3.30
2019-05-29T13:10:29.875Z,3.13
2019-05-29T13:12:48.931Z,2.87
2019-05-29T13:15:18.027Z,2.87
2019-05-29T13:17:46.411Z,2.87
2019-05-29T13:20:21.453Z,3.13
2019-05-29T13:22:45.459Z,2.97
2019-05-29T13:25:14.279Z,2.60
2019-05-29T13:27:42.752Z,2.73
2019-05-29T13:30:13.475Z,2.70
2019-05-29T13:32:42.286Z,2.50
2019-05-29T13:35:12.647Z,2.60
2019-05-29T13:37:41.033Z,5.03
2019-05-29T13:40:09.756Z,2.83
2019-05-29T13:42:38.207Z,2.50
2019-05-29T13:45:16.893Z,2.40
2019-05-29T13:47:37.739Z,2.00
2019-05-29T13:50:11.745Z,1.97
2019-05-29T13:52:37.278Z,2.40
2019-05-29T13:55:07.830Z,1.90
2019-05-29T13:57:39.539Z,2.33
2019-05-29T14:00:30.203Z,2.67
2019-05-29T14:02:38.930Z,2.50
2019-05-29T14:05:08.771Z,2.23
2019-05-29T14:07:37.395Z,2.30
2019-05-29T14:10:07.768Z,2.30
2019-05-29T14:12:37.641Z,2.00
2019-05-29T14:15:09.991Z,1.67
2019-05-29T14:17:38.390Z,1.90
2019-05-29T14:20:09.115Z,1.93
2019-05-29T14:22:37.577Z,2.07
2019-05-29T14:25:07.523Z,2.10
2019-05-29T14:27:35.960Z,2.30
2019-05-29T14:30:08.455Z,2.17
2019-05-29T14:32:37.519Z,2.00
2019-05-29T14:35:07.769Z,2.10
2019-05-29T14:37:37.049Z,1.80
2019-05-29T14:40:07.757Z,1.80
2019-05-29T14:42:36.350Z,2.13
2019-05-29T14:45:08.520Z,2.10
2019-05-29T14:47:36.923Z,1.83
2019-05-29T14:50:06.827Z,2.03
2019-05-29T14:52:35.203Z,2.10
2019-05-29T14:55:04.724Z,1.83
2019-05-29T14:57:33.127Z,2.30
2019-05-29T15:00:06.572Z,2.20
2019-05-29T15:02:31.763Z,2.30
2019-05-29T15:05:00.150Z,2.20
2019-05-29T15:07:28.529Z,2.17
2019-05-29T15:09:56.914Z,2.13
2019-05-29T15:12:25.310Z,2.60
2019-05-29T15:14:53.687Z,2.33
2019-05-29T15:17:22.076Z,2.40
2019-05-29T15:19:50.483Z,2.40
2019-05-29T15:22:18.878Z,2.53
2019-05-29T15:25:01.513Z,2.60
2019-05-29T15:27:17.378Z,2.50
2019-05-29T15:29:45.765Z,2.80
2019-05-29T15:32:14.610Z,3.10
2019-05-29T15:34:43.006Z,3.60
2019-05-29T15:37:13.679Z,3.10
2019-05-29T15:39:41.513Z,3.30
2019-05-29T15:42:10.892Z,3.23
2019-05-29T15:44:39.265Z,3.50
2019-05-29T15:47:08.758Z,3.50
2019-05-29T15:49:37.243Z,3.50
2019-05-29T15:52:06.960Z,3.55
2019-05-29T15:54:35.412Z,3.00
2019-05-29T15:57:03.791Z,3.30
2019-05-29T15:59:32.178Z,3.20
2019-05-29T16:02:00.568Z,3.20
2019-05-29T16:04:29.056Z,3.00
2019-05-29T16:06:57.459Z,2.90
2019-05-29T16:09:25.874Z,3.07
2019-05-29T16:11:54.273Z,2.40
2019-05-29T16:14:22.655Z,2.93
2019-05-29T16:16:51.044Z,3.10
2019-05-29T16:19:19.424Z,2.70
2019-05-29T16:21:47.810Z,2.67
2019-05-29T16:24:16.803Z,2.97
2019-05-29T16:26:45.230Z,2.83
2019-05-29T16:29:15.999Z,2.80
2019-05-29T16:31:43.993Z,3.30
2019-05-29T16:34:12.435Z,2.80
2019-05-29T16:36:40.825Z,2.77
2019-05-29T16:39:09.386Z,2.80
2019-05-29T16:41:37.941Z,2.73
2019-05-29T16:44:06.503Z,3.00
2019-05-29T16:46:34.888Z,2.80
2019-05-29T16:49:03.283Z,2.87
2019-05-29T16:51:31.732Z,2.87
2019-05-29T16:54:00.134Z,2.47
2019-05-29T16:56:28.565Z,2.80
2019-05-29T16:58:56.968Z,3.00
2019-05-29T17:01:25.371Z,2.67
2019-05-29T17:03:53.762Z,2.70
2019-05-29T17:06:22.498Z,2.80
2019-05-29T17:08:51.088Z,2.60
2019-05-29T17:11:20.374Z,2.90
2019-05-29T17:13:48.792Z,3.60
2019-05-29T17:16:18.460Z,3.20
2019-05-29T17:18:47.092Z,2.93
2019-05-29T17:21:16.508Z,2.93
2019-05-29T17:23:44.882Z,2.67
2019-05-29T17:26:14.560Z,3.10
2019-05-29T17:28:43.085Z,3.00
2019-05-29T17:31:11.515Z,3.00
2019-05-29T17:33:39.912Z,2.90
2019-05-29T17:36:08.407Z,3.00
2019-05-29T17:38:36.741Z,2.77
2019-05-29T17:41:05.311Z,3.00
2019-05-29T17:43:33.707Z,3.10
2019-05-29T17:46:02.117Z,3.07
2019-05-29T17:48:30.513Z,3.03
2019-05-29T17:50:58.926Z,2.83
2019-05-29T17:53:27.423Z,2.97
2019-05-29T17:55:55.817Z,2.90
2019-05-29T17:58:25.021Z,3.00
2019-05-29T18:00:54.479Z,3.00
2019-05-29T18:03:22.879Z,3.30
2019-05-29T18:05:51.284Z,3.10
2019-05-29T18:08:20.711Z,3.40
2019-05-29T18:10:49.202Z,3.30
2019-05-29T18:13:17.588Z,3.37
2019-05-29T18:15:46.029Z,3.50
2019-05-29T18:18:14.417Z,2.97
2019-05-29T18:20:42.822Z,3.33
2019-05-29T18:23:11.207Z,3.23
2019-05-29T18:25:39.649Z,3.33
2019-05-29T18:28:08.051Z,3.37
2019-05-29T18:30:36.519Z,3.37
2019-05-29T18:33:05.050Z,3.20
2019-05-29T18:35:33.468Z,3.40
2019-05-29T18:38:01.890Z,2.90
2019-05-29T18:40:30.299Z,3.07
2019-05-29T18:42:58.701Z,3.40
2019-05-29T18:45:27.965Z,3.77
2019-05-29T18:47:57.248Z,3.87
2019-05-29T18:50:25.734Z,3.47
2019-05-29T18:52:54.107Z,3.70
2019-05-29T18:55:22.861Z,3.83
2019-05-29T18:57:51.292Z,3.70
2019-05-29T19:00:23.326Z,4.10
2019-05-29T19:02:51.798Z,4.00
2019-05-29T19:05:21.423Z,5.10
2019-05-29T19:07:49.861Z,4.30
2019-05-29T19:10:19.707Z,4.37
2019-05-29T19:12:48.097Z,3.77
2019-05-29T19:15:17.765Z,4.17
2019-05-29T19:17:46.166Z,3.63
2019-05-29T19:20:15.160Z,3.47
2019-05-29T19:22:43.546Z,3.57
2019-05-29T19:25:12.162Z,4.20
2019-05-29T19:27:42.250Z,3.80
2019-05-29T19:30:11.497Z,3.70
2019-05-29T19:32:39.878Z,4.00
2019-05-29T19:35:09.226Z,3.90
2019-05-29T19:37:37.604Z,3.83
2019-05-29T19:40:06.736Z,4.30
2019-05-29T19:42:35.124Z,4.20
2019-05-29T19:45:05.646Z,3.80
2019-05-29T19:47:34.929Z,3.83
2019-05-29T19:50:04.672Z,4.50
2019-05-29T19:52:33.329Z,4.20
2019-05-29T19:55:01.798Z,3.83
2019-05-29T19:57:46.526Z,3.97
2019-05-29T20:00:00.358Z,4.20
2019-05-29T20:02:30.473Z,4.60
2019-05-29T20:04:58.828Z,4.10
2019-05-29T20:07:27.224Z,3.80
2019-05-29T20:09:55.608Z,3.87
2019-05-29T20:12:23.995Z,4.33
2019-05-29T20:14:52.379Z,4.20
2019-05-29T20:17:20.768Z,4.30
2019-05-29T20:19:49.150Z,4.30
2019-05-29T20:22:17.538Z,4.33
2019-05-29T20:24:45.927Z,4.80
2019-05-29T20:27:14.306Z,5.10
2019-05-29T20:29:42.761Z,4.87
2019-05-29T20:32:11.151Z,4.80
2019-05-29T20:34:40.470Z,5.03
2019-05-29T20:37:08.862Z,4.90
2019-05-29T20:39:38.448Z,5.00
2019-05-29T20:42:06.943Z,4.70
2019-05-29T20:44:41.288Z,4.83
2019-05-29T20:47:09.673Z,4.60
2019-05-29T20:49:38.120Z,5.10
2019-05-29T20:52:06.537Z,5.50
2019-05-29T20:54:35.595Z,5.97
2019-05-29T20:57:05.689Z,6.20
2019-05-29T20:59:34.092Z,5.80
2019-05-29T21:02:02.494Z,6.77
2019-05-29T21:04:32.917Z,6.70
2019-05-29T21:07:01.016Z,6.80
2019-05-29T21:09:29.428Z,7.50
2019-05-29T21:11:57.776Z,7.40
2019-05-29T21:14:26.174Z,7.63
2019-05-29T21:16:54.554Z,7.77
2019-05-29T21:19:22.944Z,7.17
2019-05-29T21:21:51.324Z,7.67
2019-05-29T21:24:20.601Z,6.97
2019-05-29T21:26:48.984Z,6.73
2019-05-29T21:29:17.369Z,6.83
2019-05-29T21:31:45.836Z,6.33
2019-05-29T21:34:14.232Z,6.43
2019-05-29T21:36:42.690Z,6.80
2019-05-29T21:39:11.143Z,6.57
2019-05-29T21:41:40.416Z,6.80
2019-05-29T21:44:08.786Z,6.00
2019-05-29T21:46:37.185Z,6.30
2019-05-29T21:49:05.665Z,6.07
2019-05-29T21:51:34.045Z,5.73
2019-05-29T21:54:02.440Z,6.60
2019-05-29T21:56:30.826Z,6.80
2019-05-29T21:59:03.900Z,6.07
2019-05-29T22:01:29.451Z,6.47
2019-05-29T22:03:57.903Z,5.70
2019-05-29T22:06:26.423Z,5.87
2019-05-29T22:08:54.876Z,5.93
2019-05-29T22:11:23.259Z,5.50
2019-05-29T22:13:52.364Z,5.37
2019-05-29T22:16:20.705Z,5.77
2019-05-29T22:18:49.157Z,5.50
2019-05-29T22:21:17.544Z,5.40
2019-05-29T22:23:45.926Z,5.33
2019-05-29T22:26:14.307Z,5.10
2019-05-29T22:28:42.701Z,5.40
2019-05-29T22:31:11.154Z,5.30
2019-05-29T22:33:39.602Z,5.83
2019-05-29T22:36:07.975Z,5.50
2019-05-29T22:38:36.372Z,5.60
2019-05-29T22:41:04.816Z,5.87
2019-05-29T22:43:33.220Z,5.60
2019-05-29T22:46:01.882Z,5.63
2019-05-29T22:48:30.254Z,5.17
2019-05-29T22:50:59.884Z,5.90
2019-05-29T22:53:28.303Z,5.80
2019-05-29T22:55:57.819Z,5.83
2019-05-29T22:58:26.246Z,5.80
2019-05-29T23:00:55.874Z,5.63
2019-05-29T23:03:24.381Z,6.10
2019-05-29T23:05:53.995Z,5.80
2019-05-29T23:08:22.626Z,5.80
2019-05-29T23:10:52.183Z,5.90
2019-05-29T23:13:20.581Z,5.60
2019-05-29T23:15:48.963Z,5.50
2019-05-29T23:18:17.341Z,5.83
2019-05-29T23:20:45.732Z,5.30
2019-05-29T23:23:14.191Z,5.20
2019-05-29T23:25:42.581Z,6.00
2019-05-29T23:28:11.027Z,5.37
2019-05-29T23:30:39.415Z,6.50
2019-05-29T23:33:07.793Z,5.97
2019-05-29T23:35:36.182Z,5.30
2019-05-29T23:38:04.564Z,5.73
2019-05-29T23:40:32.954Z,5.83
2019-05-29T23:43:01.606Z,5.47
2019-05-29T23:45:30.116Z,5.50
2019-05-29T23:47:59.624Z,5.77
2019-05-29T23:50:28.066Z,5.80
2019-05-29T23:52:57.839Z,5.70
2019-05-29T23:55:26.320Z,6.13
2019-05-29T23:57:55.665Z,6.20
